Time;durP1;ratioP1;P1;durP2;ratioP2;P2;SDS_P1;SDS_P2;PMS_P1;PMS_P2;Temp;Humidity;BMP_temperature;BMP_pressure;BME280_temperature;BME280_humidity;BME280_pressure;Samples;Min_cycle;Max_cycle;Signal;HPM_P1;HPM_P2
2021/03/15 00:00:26;;;;;;;0.30;0.10;;;;;;;5.14;100.00;99973.97;5041023;28;20459;-57
2021/03/15 00:02:52;;;;;;;0.20;0.10;;;;;;;5.15;100.00;99973.06;5046116;28;20452;-57
2021/03/15 00:05:19;;;;;;;0.20;0.10;;;;;;;5.21;100.00;99978.28;5044601;28;20492;-57
2021/03/15 00:07:46;;;;;;;0.30;0.20;;;;;;;5.22;100.00;99972.97;5039260;28;20471;-57
2021/03/15 00:10:13;;;;;;;0.20;0.10;;;;;;;5.20;100.00;99977.38;5040823;28;20448;-57
2021/03/15 00:12:41;;;;;;;0.20;0.20;;;;;;;5.14;100.00;99973.97;5045897;28;21007;-57
2021/03/15 00:15:10;;;;;;;0.20;0.10;;;;;;;5.12;100.00;99973.97;5045265;28;20501;-57
2021/03/15 00:17:36;;;;;;;0.20;0.10;;;;;;;5.15;100.00;99983.59;5038785;28;20887;-57
2021/03/15 00:20:06;;;;;;;0.20;0.20;;;;;;;5.52;100.00;99978.75;5039739;28;20552;-57
2021/03/15 00:22:35;;;;;;;0.20;0.10;;;;;;;5.43;100.00;99974.47;5039384;28;20978;-57
2021/03/15 00:25:02;;;;;;;0.20;0.10;;;;;;;5.53;100.00;99970.81;5039382;28;20448;-57
2021/03/15 00:27:28;;;;;;;0.30;0.10;;;;;;;5.54;100.00;99969.06;5045351;28;20529;-57
2021/03/15 00:29:55;;;;;;;0.20;0.10;;;;;;;5.84;100.00;99963.34;5037624;28;20979;-57
2021/03/15 00:32:21;;;;;;;0.20;0.20;;;;;;;5.46;100.00;99952.47;5039111;28;20450;-57
2021/03/15 00:34:48;;;;;;;0.20;0.10;;;;;;;5.48;100.00;99966.47;5039124;28;20882;-57
2021/03/15 00:37:14;;;;;;;0.20;0.20;;;;;;;5.71;100.00;99955.63;5047507;28;20466;-57
2021/03/15 00:39:41;;;;;;;0.20;0.10;;;;;;;5.54;100.00;99956.75;5037522;28;20875;-57
2021/03/15 00:42:07;;;;;;;0.20;0.20;;;;;;;5.52;100.00;99955.91;5028245;28;20505;-57
2021/03/15 00:44:34;;;;;;;0.20;0.20;;;;;;;5.67;100.00;99951.31;5038709;28;20452;-57
2021/03/15 00:47:01;;;;;;;0.20;0.10;;;;;;;5.45;100.00;99950.72;5043719;28;20495;-57
2021/03/15 00:49:27;;;;;;;0.20;0.10;;;;;;;5.52;100.00;99940.09;5045356;28;20454;-57
2021/03/15 00:51:54;;;;;;;0.20;0.10;;;;;;;5.61;100.00;99931.16;5040712;28;20497;-57
2021/03/15 00:54:21;;;;;;;0.20;0.10;;;;;;;5.48;100.00;99929.59;5038337;28;20949;-58
2021/03/15 00:56:48;;;;;;;0.20;0.20;;;;;;;5.34;100.00;99927.13;5042677;28;20468;-57
2021/03/15 00:59:15;;;;;;;0.20;0.10;;;;;;;5.18;100.00;99920.31;5043892;28;20521;-57
2021/03/15 01:01:41;;;;;;;0.20;0.10;;;;;;;5.06;100.00;99923.97;5039350;28;20504;-57
2021/03/15 01:04:10;;;;;;;0.20;0.10;;;;;;;5.08;100.00;99919.59;5038415;28;20455;-57
2021/03/15 01:06:41;;;;;;;0.20;0.20;;;;;;;5.19;100.00;99915.03;5042740;28;20492;-58
2021/03/15 01:09:07;;;;;;;0.20;0.10;;;;;;;5.10;100.00;99901.13;5044113;28;20460;-57
2021/03/15 01:11:33;;;;;;;0.20;0.20;;;;;;;5.32;100.00;99905.22;5041701;28;20512;-57
2021/03/15 01:14:00;;;;;;;0.20;0.10;;;;;;;5.17;100.00;99895.75;5038633;28;20500;-57
2021/03/15 01:16:26;;;;;;;0.20;0.10;;;;;;;5.15;100.00;99881.72;5042195;28;20517;-57
2021/03/15 01:18:53;;;;;;;0.20;0.10;;;;;;;5.30;100.00;99886.78;5045411;28;20456;-58
2021/03/15 01:21:19;;;;;;;0.20;0.10;;;;;;;5.26;100.00;99879.81;5042072;28;21014;-58
2021/03/15 01:23:45;;;;;;;0.30;0.10;;;;;;;5.18;100.00;99878.19;5038133;28;20455;-57
2021/03/15 01:26:11;;;;;;;0.20;0.10;;;;;;;5.23;100.00;99868.47;5042443;28;20529;-57
2021/03/15 01:28:37;;;;;;;0.20;0.10;;;;;;;5.22;100.00;99866.72;5044960;28;20501;-58
2021/03/15 01:31:03;;;;;;;0.20;0.10;;;;;;;5.09;100.00;99863.38;5032012;28;20448;-57
2021/03/15 01:33:30;;;;;;;0.20;0.13;;;;;;;4.97;100.00;99859.16;5044880;28;20946;-58
2021/03/15 01:35:56;;;;;;;0.20;0.20;;;;;;;4.99;100.00;99849.47;5041014;28;20500;-57
2021/03/15 01:38:22;;;;;;;0.20;0.10;;;;;;;5.00;100.00;99843.28;5045113;28;20824;-57
2021/03/15 01:40:49;;;;;;;0.20;0.10;;;;;;;4.98;100.00;99839.81;5022940;28;20503;-58
2021/03/15 01:43:15;;;;;;;0.20;0.10;;;;;;;5.12;100.00;99829.09;5042985;28;20506;-57
2021/03/15 01:45:41;;;;;;;0.20;0.10;;;;;;;5.03;100.00;99818.66;5042009;28;20956;-57
2021/03/15 01:48:13;;;;;;;0.20;0.10;;;;;;;5.17;100.00;99811.44;5037872;28;20482;-57
2021/03/15 01:50:50;;;;;;;0.30;0.20;;;;;;;5.15;100.00;99809.72;5040462;28;20448;-57
2021/03/15 01:53:18;;;;;;;0.23;0.17;;;;;;;5.11;100.00;99808.03;5044992;28;20448;-57
2021/03/15 01:55:45;;;;;;;0.20;0.10;;;;;;;5.35;100.00;99807.69;5044672;28;20869;-57
2021/03/15 01:58:13;;;;;;;0.20;0.10;;;;;;;5.47;100.00;99804.84;5044618;28;21031;-58
2021/03/15 02:00:40;;;;;;;0.20;0.20;;;;;;;5.59;100.00;99799.38;5045032;28;20455;-58
2021/03/15 02:03:07;;;;;;;0.20;0.10;;;;;;;5.81;100.00;99804.31;5038736;28;20446;-58
2021/03/15 02:05:36;;;;;;;0.20;0.10;;;;;;;5.74;100.00;99800.00;5037639;28;21131;-58
2021/03/15 02:08:04;;;;;;;0.20;0.17;;;;;;;5.70;100.00;99795.69;5044108;28;20471;-57
2021/03/15 02:10:30;;;;;;;0.20;0.20;;;;;;;5.70;100.00;99799.19;5032454;28;20502;-58
2021/03/15 02:13:13;;;;;;;0.20;0.10;;;;;;;5.59;100.00;99786.19;5042816;28;20477;-58
2021/03/15 02:16:10;;;;;;;0.20;0.10;;;;;;;5.81;100.00;99791.97;5041631;28;20439;-58
2021/03/15 02:18:55;;;;;;;0.20;0.10;;;;;;;6.01;100.00;99786.38;5041606;28;20489;-57
2021/03/15 02:21:44;;;;;;;0.20;0.20;;;;;;;5.77;100.00;99784.16;5044600;28;20451;-58
2021/03/15 02:24:31;;;;;;;0.20;0.10;;;;;;;5.97;100.00;99773.28;5029298;28;21002;-57
2021/03/15 02:27:29;;;;;;;0.20;0.10;;;;;;;6.01;100.00;99767.91;5041022;28;20575;-57
2021/03/15 02:30:17;;;;;;;0.20;0.10;;;;;;;5.96;100.00;99763.63;5040474;28;20467;-58
2021/03/15 02:33:18;;;;;;;0.20;0.10;;;;;;;5.83;100.00;99758.53;5045534;28;20443;-57
2021/03/15 02:35:46;;;;;;;0.20;0.10;;;;;;;5.75;100.00;99746.38;5045302;28;20443;-57
2021/03/15 02:38:14;;;;;;;0.20;0.10;;;;;;;5.72;100.00;99738.53;5043998;28;20536;-57
2021/03/15 02:40:45;;;;;;;0.20;0.10;;;;;;;5.71;100.00;99716.56;5027112;28;20453;-57
2021/03/15 02:43:18;;;;;;;0.20;0.10;;;;;;;5.69;100.00;99712.22;5035681;28;20442;-57
2021/03/15 02:45:49;;;;;;;0.20;0.10;;;;;;;5.52;100.00;99704.63;5043087;28;20562;-57
2021/03/15 02:48:17;;;;;;;0.20;0.10;;;;;;;5.62;100.00;99711.47;5047535;28;20474;-57
2021/03/15 02:50:46;;;;;;;0.20;0.20;;;;;;;5.60;100.00;99713.25;5046250;28;20512;-57
2021/03/15 02:53:17;;;;;;;0.20;0.10;;;;;;;5.58;100.00;99696.59;5040608;28;20454;-57
2021/03/15 02:55:48;;;;;;;0.20;0.10;;;;;;;5.53;100.00;99688.78;5041395;28;20448;-57
2021/03/15 02:58:15;;;;;;;0.20;0.10;;;;;;;5.51;100.00;99677.41;5027247;28;20478;-57
2021/03/15 03:00:43;;;;;;;0.20;0.10;;;;;;;5.67;100.00;99677.97;5040579;28;20880;-57
2021/03/15 03:03:11;;;;;;;0.20;0.10;;;;;;;5.71;100.00;99669.09;5046329;28;20929;-57
2021/03/15 03:05:39;;;;;;;0.30;0.10;;;;;;;5.64;100.00;99662.22;5047585;28;20518;-57
2021/03/15 03:08:17;;;;;;;0.20;0.13;;;;;;;5.66;100.00;99657.78;5042707;28;20462;-57
2021/03/15 03:10:45;;;;;;;0.20;0.20;;;;;;;5.63;100.00;99653.44;5040445;28;20458;-58
2021/03/15 03:13:12;;;;;;;0.20;0.10;;;;;;;5.75;100.00;99665.50;5044338;28;20478;-57
2021/03/15 03:15:38;;;;;;;0.23;0.20;;;;;;;5.83;100.00;99663.59;5046991;28;20448;-58
2021/03/15 03:18:06;;;;;;;0.20;0.10;;;;;;;5.81;100.00;99661.91;5043870;28;20467;-58
2021/03/15 03:20:33;;;;;;;0.20;0.20;;;;;;;5.74;100.00;99655.84;5040210;28;20465;-57
2021/03/15 03:23:02;;;;;;;0.20;0.10;;;;;;;5.72;100.00;99659.44;5043440;28;20447;-58
2021/03/15 03:25:30;;;;;;;0.20;0.10;;;;;;;5.72;100.00;99659.44;5046999;28;20491;-57
2021/03/15 03:28:00;;;;;;;0.20;0.20;;;;;;;5.86;100.00;99655.63;5044533;28;20470;-57
2021/03/15 03:30:29;;;;;;;0.20;0.10;;;;;;;5.92;100.00;99652.03;5035856;28;20448;-58
2021/03/15 03:32:58;;;;;;;0.20;0.10;;;;;;;5.85;100.00;99647.75;5046191;28;20447;-58
2021/03/15 03:35:25;;;;;;;0.20;0.10;;;;;;;5.84;100.00;99646.00;5039866;28;21025;-58
2021/03/15 03:37:51;;;;;;;0.20;0.10;;;;;;;5.99;100.00;99629.03;5048769;28;20497;-59
2021/03/15 03:40:18;;;;;;;0.30;0.10;;;;;;;5.88;100.00;99638.00;5020195;28;20505;-57
2021/03/15 03:42:45;;;;;;;0.20;0.10;;;;;;;6.17;100.00;99636.59;5046830;28;20458;-58
2021/03/15 03:45:12;;;;;;;0.20;0.10;;;;;;;6.01;100.00;99630.75;5020099;28;20477;-58
2021/03/15 03:47:41;;;;;;;0.20;0.10;;;;;;;6.14;100.00;99637.50;5046263;28;20888;-58
2021/03/15 03:50:11;;;;;;;0.20;0.10;;;;;;;5.91;100.00;99622.16;5027986;28;20814;-58
2021/03/15 03:52:43;;;;;;;0.20;0.10;;;;;;;6.08;100.00;99623.59;5038599;28;20454;-58
2021/03/15 03:55:14;;;;;;;0.20;0.10;;;;;;;5.99;100.00;99623.75;5033941;28;20444;-57
2021/03/15 03:57:43;;;;;;;0.20;0.10;;;;;;;6.03;100.00;99612.22;5043504;28;20469;-58
2021/03/15 04:00:13;;;;;;;0.20;0.10;;;;;;;5.89;100.00;99605.47;5013576;28;20457;-58
2021/03/15 04:03:02;;;;;;;0.20;0.20;;;;;;;6.16;100.00;99608.44;5043876;28;20458;-58
2021/03/15 04:05:30;;;;;;;0.20;0.20;;;;;;;5.86;100.00;99602.88;5046305;28;20470;-58
2021/03/15 04:08:06;;;;;;;0.23;0.20;;;;;;;5.91;100.00;99605.47;5040356;28;20471;-58
2021/03/15 04:10:34;;;;;;;0.20;0.10;;;;;;;6.03;100.00;99599.03;5039559;28;20466;-58
2021/03/15 04:13:07;;;;;;;0.20;0.10;;;;;;;5.84;100.00;99595.91;5044113;28;20447;-57
2021/03/15 04:15:34;;;;;;;0.20;0.10;;;;;;;5.78;100.00;99602.19;5045625;28;20454;-58
2021/03/15 04:18:03;;;;;;;0.20;0.10;;;;;;;5.71;100.00;99600.56;5032929;28;20499;-58
2021/03/15 04:20:33;;;;;;;0.20;0.10;;;;;;;5.97;100.00;99597.41;5045681;28;20937;-57
2021/03/15 04:23:02;;;;;;;0.30;0.20;;;;;;;5.89;100.00;99600.19;5032777;28;20444;-57
2021/03/15 04:25:31;;;;;;;0.20;0.10;;;;;;;5.90;100.00;99596.69;5045749;28;20929;-57
2021/03/15 04:27:59;;;;;;;0.20;0.13;;;;;;;5.91;100.00;99597.56;5043805;28;20475;-57
2021/03/15 04:30:26;;;;;;;0.20;0.10;;;;;;;5.91;100.00;99587.00;5033704;28;20494;-57
2021/03/15 04:32:54;;;;;;;0.20;0.10;;;;;;;5.80;100.00;99586.31;5043625;28;20455;-55
2021/03/15 04:35:30;;;;;;;0.20;0.10;;;;;;;5.87;100.00;99590.56;5038603;28;20447;-56
2021/03/15 04:37:59;;;;;;;0.20;0.20;;;;;;;5.95;100.00;99588.69;5047610;28;20469;-56
2021/03/15 04:40:27;;;;;;;0.20;0.13;;;;;;;6.03;100.00;99585.84;5027119;28;20453;-56
2021/03/15 04:42:59;;;;;;;0.20;0.10;;;;;;;5.82;100.00;99587.16;5027083;28;20480;-56
2021/03/15 04:45:34;;;;;;;0.20;0.10;;;;;;;6.06;100.00;99576.13;5034527;28;20445;-56
2021/03/15 04:48:04;;;;;;;0.20;0.13;;;;;;;5.84;100.00;99573.03;5025892;28;20538;-56
2021/03/15 04:50:36;;;;;;;0.20;0.10;;;;;;;5.99;100.00;99571.88;5043299;28;20546;-56
2021/03/15 04:53:03;;;;;;;0.20;0.20;;;;;;;5.90;100.00;99567.69;5038491;28;20446;-56
2021/03/15 04:55:31;;;;;;;0.20;0.20;;;;;;;6.08;100.00;99566.41;5040732;28;20946;-55
2021/03/15 04:58:00;;;;;;;0.20;0.10;;;;;;;6.00;100.00;99559.56;5045470;28;20475;-56
2021/03/15 05:00:27;;;;;;;0.20;0.10;;;;;;;6.02;100.00;99555.97;5044637;28;20450;-56
2021/03/15 05:02:54;;;;;;;0.20;0.10;;;;;;;5.67;100.00;99564.63;5033337;28;20538;-55
2021/03/15 05:05:24;;;;;;;0.20;0.10;;;;;;;5.82;100.00;99559.03;5044461;28;20450;-56
2021/03/15 05:07:52;;;;;;;0.20;0.10;;;;;;;5.62;100.00;99554.19;5038299;28;20467;-55
2021/03/15 05:10:18;;;;;;;0.20;0.20;;;;;;;5.74;100.00;99555.66;5039918;28;20448;-55
2021/03/15 05:12:45;;;;;;;0.30;0.10;;;;;;;5.70;100.00;99554.00;5045483;28;20509;-55
2021/03/15 05:15:13;;;;;;;0.20;0.10;;;;;;;5.90;100.00;99556.28;5045121;28;20450;-55
2021/03/15 05:17:40;;;;;;;0.30;0.10;;;;;;;5.73;100.00;99553.94;5038510;28;20490;-56
2021/03/15 05:20:10;;;;;;;0.20;0.10;;;;;;;5.64;100.00;99555.00;5038721;28;20451;-56
2021/03/15 05:22:37;;;;;;;0.20;0.10;;;;;;;5.46;100.00;99560.63;5026257;28;20451;-55
2021/03/15 05:25:10;;;;;;;0.20;0.10;;;;;;;5.67;100.00;99558.47;5038749;28;20860;-55
2021/03/15 05:27:38;;;;;;;0.20;0.10;;;;;;;5.37;100.00;99563.47;5044112;28;20491;-56
2021/03/15 05:30:07;;;;;;;0.20;0.10;;;;;;;5.46;100.00;99563.25;5037118;28;20502;-56
2021/03/15 05:32:37;;;;;;;0.20;0.20;;;;;;;5.35;100.00;99570.53;5041431;28;20511;-56
2021/03/15 05:35:06;;;;;;;0.20;0.20;;;;;;;5.51;100.00;99557.91;5038311;28;20447;-55
2021/03/15 05:37:32;;;;;;;0.20;0.13;;;;;;;5.07;100.00;99562.25;5047136;28;20467;-55
2021/03/15 05:40:13;;;;;;;0.20;0.20;;;;;;;5.27;100.00;99565.41;5025746;28;20865;-56
2021/03/15 05:43:00;;;;;;;0.20;0.20;;;;;;;5.09;100.00;99562.25;5022183;28;20533;-56
2021/03/15 05:45:43;;;;;;;0.20;0.10;;;;;;;5.02;100.00;99557.06;5030646;28;21000;-55
2021/03/15 05:48:21;;;;;;;0.20;0.10;;;;;;;5.06;100.00;99556.09;5042241;28;20557;-55
2021/03/15 05:51:23;;;;;;;0.20;0.20;;;;;;;5.04;100.00;99555.28;5043146;28;20989;-55
2021/03/15 05:53:49;;;;;;;0.20;0.10;;;;;;;5.11;100.00;99549.91;5023251;28;20485;-56
2021/03/15 05:56:36;;;;;;;0.20;0.10;;;;;;;5.10;100.00;99553.44;5041959;28;20855;-56
2021/03/15 05:59:35;;;;;;;0.20;0.10;;;;;;;5.28;100.00;99555.72;5042065;28;20929;-55
2021/03/15 06:02:12;;;;;;;0.20;0.10;;;;;;;5.34;100.00;99555.59;5043906;28;20493;-55
2021/03/15 06:05:03;;;;;;;0.20;0.20;;;;;;;5.34;100.00;99559.13;5048752;28;20799;-56
2021/03/15 06:07:33;;;;;;;0.20;0.10;;;;;;;5.44;100.00;99557.16;5048678;28;20567;-56
2021/03/15 06:10:10;;;;;;;0.20;0.10;;;;;;;5.31;100.00;99560.94;5039274;28;20503;-55
2021/03/15 06:12:47;;;;;;;0.20;0.10;;;;;;;5.31;100.00;99559.16;5038484;28;20450;-56
2021/03/15 06:15:15;;;;;;;0.20;0.10;;;;;;;5.42;100.00;99564.22;5042096;28;20908;-56
2021/03/15 06:17:41;;;;;;;0.20;0.10;;;;;;;5.19;100.00;99558.53;5041800;28;20471;-56
2021/03/15 06:20:08;;;;;;;0.20;0.10;;;;;;;5.22;100.00;99556.72;5041856;28;20452;-55
2021/03/15 06:22:34;;;;;;;0.20;0.10;;;;;;;5.31;100.00;99559.16;5041576;28;20537;-56
2021/03/15 06:25:02;;;;;;;0.20;0.10;;;;;;;5.32;100.00;99557.38;5041590;28;20506;-56
2021/03/15 06:27:29;;;;;;;0.20;0.10;;;;;;;5.29;100.00;99555.69;5028943;28;20551;-55
2021/03/15 06:29:56;;;;;;;0.20;0.10;;;;;;;5.35;100.00;99550.31;5041039;28;20458;-55
2021/03/15 06:32:27;;;;;;;0.20;0.10;;;;;;;5.51;100.00;99556.16;5043074;28;20824;-56
2021/03/15 06:34:55;;;;;;;0.20;0.10;;;;;;;5.34;100.00;99545.06;5041136;28;20451;-55
2021/03/15 06:37:22;;;;;;;0.20;0.10;;;;;;;5.36;100.00;99545.91;5050145;28;20463;-56
2021/03/15 06:39:50;;;;;;;0.20;0.10;;;;;;;5.37;100.00;99557.31;5038367;28;20452;-56
2021/03/15 06:42:18;;;;;;;0.20;0.20;;;;;;;5.56;100.00;99554.28;5024279;28;20460;-56
2021/03/15 06:44:45;;;;;;;0.20;0.10;;;;;;;5.61;100.00;99549.78;5048097;28;20497;-55
2021/03/15 06:47:11;;;;;;;0.20;0.10;;;;;;;5.48;100.00;99557.97;5042982;28;20553;-56
2021/03/15 06:49:37;;;;;;;0.20;0.10;;;;;;;5.49;100.00;99552.69;5041146;28;20941;-55
2021/03/15 06:52:09;;;;;;;0.20;0.10;;;;;;;5.62;100.00;99551.53;5044326;28;20452;-55
2021/03/15 06:54:36;;;;;;;0.20;0.10;;;;;;;5.53;100.00;99551.72;5047821;28;20452;-55
2021/03/15 06:57:17;;;;;;;0.20;0.10;;;;;;;5.68;100.00;99552.31;5045240;28;20462;-55
2021/03/15 06:59:56;;;;;;;0.20;0.20;;;;;;;5.75;100.00;99549.47;5040831;28;21292;-55
2021/03/15 07:02:24;;;;;;;0.20;0.10;;;;;;;5.74;100.00;99557.44;5040878;28;20447;-55
2021/03/15 07:04:52;;;;;;;0.20;0.13;;;;;;;5.81;100.00;99561.69;5046476;28;20452;-55
2021/03/15 07:07:23;;;;;;;0.20;0.10;;;;;;;5.74;100.00;99558.28;5047321;28;20926;-55
2021/03/15 07:09:54;;;;;;;0.20;0.10;;;;;;;5.75;100.00;99554.75;5039344;28;20533;-55
2021/03/15 07:12:22;;;;;;;0.20;0.10;;;;;;;5.71;100.00;99563.66;5033891;28;20462;-55
2021/03/15 07:14:50;;;;;;;0.20;0.10;;;;;;;5.86;100.00;99562.44;5044184;28;20451;-56
2021/03/15 07:17:26;;;;;;;0.20;0.10;;;;;;;5.75;100.00;99575.00;5047509;28;20471;-55
2021/03/15 07:19:54;;;;;;;0.20;0.10;;;;;;;5.87;100.00;99575.59;5046133;28;20446;-55
2021/03/15 07:22:29;;;;;;;0.20;0.10;;;;;;;5.85;100.00;99581.81;5040615;28;20446;-55
2021/03/15 07:25:06;;;;;;;0.20;0.10;;;;;;;5.91;100.00;99582.59;5040896;28;20470;-55
2021/03/15 07:27:33;;;;;;;0.20;0.10;;;;;;;5.96;100.00;99594.81;5029341;28;20494;-55
2021/03/15 07:30:28;;;;;;;0.20;0.10;;;;;;;6.13;100.00;99593.53;5039087;28;20824;-55
2021/03/15 07:32:57;;;;;;;0.20;0.10;;;;;;;5.90;100.00;99595.81;5045091;28;20447;-55
2021/03/15 07:35:26;;;;;;;0.20;0.10;;;;;;;5.89;100.00;99605.47;5040016;28;20462;-56
2021/03/15 07:37:53;;;;;;;0.20;0.20;;;;;;;5.99;100.00;99607.94;5049060;28;20502;-55
2021/03/15 07:40:46;;;;;;;0.20;0.10;;;;;;;6.01;100.00;99614.91;5014929;28;20599;-55
2021/03/15 07:43:27;;;;;;;0.20;0.20;;;;;;;6.22;100.00;99608.31;5043810;28;20465;-55
2021/03/15 07:45:54;;;;;;;0.30;0.20;;;;;;;6.04;100.00;99612.22;5034014;28;20456;-55
2021/03/15 07:48:25;;;;;;;0.23;0.17;;;;;;;6.38;100.00;99616.75;5046638;28;20535;-55
2021/03/15 07:51:03;;;;;;;0.20;0.10;;;;;;;6.52;100.00;99612.03;5046700;28;20458;-55
2021/03/15 07:53:38;;;;;;;0.20;0.20;;;;;;;6.41;100.00;99611.41;5045372;28;20447;-55
2021/03/15 07:56:06;;;;;;;0.20;0.13;;;;;;;6.57;100.00;99604.88;5046474;28;20472;-55
2021/03/15 07:58:35;;;;;;;0.20;0.10;;;;;;;6.64;100.00;99606.47;5042807;28;20446;-55
2021/03/15 08:01:04;;;;;;;0.20;0.20;;;;;;;6.96;100.00;99607.44;5039736;28;20953;-55
2021/03/15 08:03:31;;;;;;;0.20;0.10;;;;;;;6.76;100.00;99613.22;5042502;28;20456;-55
2021/03/15 08:05:59;;;;;;;0.20;0.20;;;;;;;7.07;100.00;99623.91;5046311;28;20474;-55
2021/03/15 08:08:27;;;;;;;0.20;0.10;;;;;;;6.98;100.00;99619.72;5042981;28;20455;-55
2021/03/15 08:10:55;;;;;;;0.20;0.20;;;;;;;6.93;100.00;99632.19;5039638;28;20504;-55
2021/03/15 08:13:25;;;;;;;0.30;0.10;;;;;;;6.89;100.00;99651.66;5041819;28;20452;-55
2021/03/15 08:15:57;;;;;;;0.20;0.17;;;;;;;6.91;100.00;99657.78;5046088;28;20448;-55
2021/03/15 08:18:28;;;;;;;0.30;0.20;;;;;;;6.92;100.00;99664.78;5045586;28;20481;-55
2021/03/15 08:21:02;;;;;;;0.20;0.20;;;;;;;7.07;100.00;99667.06;5045908;28;20497;-55
2021/03/15 08:23:31;;;;;;;0.20;0.10;;;;;;;7.09;100.00;99677.59;5045991;28;20456;-55
2021/03/15 08:26:05;;;;;;;0.20;0.10;;;;;;;6.99;100.00;99684.00;5040906;28;20451;-55
2021/03/15 08:28:33;;;;;;;0.20;0.10;;;;;;;7.09;100.00;99693.44;5039266;28;20455;-55
2021/03/15 08:31:31;;;;;;;0.20;0.10;;;;;;;7.10;100.00;99697.81;5035559;28;20444;-55
2021/03/15 08:33:59;;;;;;;0.23;0.10;;;;;;;7.05;100.00;99708.50;5025023;28;20462;-55
2021/03/15 08:36:25;;;;;;;0.20;0.13;;;;;;;7.08;100.00;99700.50;5038999;28;20582;-55
2021/03/15 08:38:51;;;;;;;0.20;0.10;;;;;;;7.25;100.00;99707.16;5044657;28;20452;-55
2021/03/15 08:41:23;;;;;;;0.20;0.10;;;;;;;7.26;100.00;99712.38;5020340;28;20959;-55
2021/03/15 08:43:51;;;;;;;0.20;0.10;;;;;;;7.40;100.00;99719.97;5041261;28;20469;-55
2021/03/15 08:46:23;;;;;;;0.20;0.10;;;;;;;7.33;100.00;99721.94;5038489;28;20499;-55
2021/03/15 08:48:57;;;;;;;0.20;0.10;;;;;;;7.33;100.00;99729.00;5043142;28;20873;-55
2021/03/15 08:51:32;;;;;;;0.20;0.20;;;;;;;7.33;100.00;99732.50;5045996;28;20447;-55
2021/03/15 08:54:07;;;;;;;0.30;0.20;;;;;;;7.31;100.00;99742.25;5044665;28;20457;-55
2021/03/15 08:56:36;;;;;;;0.20;0.10;;;;;;;7.39;100.00;99732.34;5038663;28;20482;-55
2021/03/15 08:59:07;;;;;;;0.20;0.20;;;;;;;7.36;100.00;99740.34;5038699;28;20452;-55
2021/03/15 09:01:45;;;;;;;0.20;0.10;;;;;;;7.43;100.00;99741.94;5045113;28;20448;-55
2021/03/15 09:04:30;;;;;;;0.20;0.20;;;;;;;7.47;100.00;99747.16;5045525;28;20483;-55
2021/03/15 09:06:57;;;;;;;0.20;0.10;;;;;;;7.57;100.00;99743.38;5043591;28;20490;-55
2021/03/15 09:09:33;;;;;;;0.20;0.20;;;;;;;7.71;100.00;99758.00;5038347;28;20963;-55
2021/03/15 09:12:01;;;;;;;0.20;0.10;;;;;;;7.85;100.00;99762.06;5026002;28;20443;-55
2021/03/15 09:14:36;;;;;;;0.20;0.10;;;;;;;7.92;100.00;99763.63;5045560;28;20458;-55
2021/03/15 09:17:14;;;;;;;0.20;0.10;;;;;;;7.91;100.00;99762.75;5045306;28;20813;-55
2021/03/15 09:19:43;;;;;;;0.30;0.10;;;;;;;7.90;100.00;99758.38;5042639;28;20446;-55
2021/03/15 09:22:15;;;;;;;0.30;0.10;;;;;;;7.95;100.00;99761.78;5042429;28;20504;-55
2021/03/15 09:24:45;;;;;;;0.20;0.17;;;;;;;7.89;100.00;99767.22;5045500;28;20456;-55
2021/03/15 09:27:20;;;;;;;0.20;0.20;;;;;;;7.86;99.26;99772.59;5049306;28;20518;-55
2021/03/15 09:30:20;;;;;;;0.30;0.20;;;;;;;7.95;98.96;99785.59;5041438;28;20447;-55
2021/03/15 09:32:55;;;;;;;0.20;0.10;;;;;;;7.93;97.57;99794.47;5038530;28;20447;-55
2021/03/15 09:35:36;;;;;;;0.20;0.10;;;;;;;7.92;99.13;99793.59;5042223;28;20462;-55
2021/03/15 09:38:04;;;;;;;0.20;0.20;;;;;;;7.93;96.69;99800.63;5050239;28;20473;-54
2021/03/15 09:40:41;;;;;;;0.30;0.10;;;;;;;7.97;97.54;99796.16;5028845;28;20465;-55
2021/03/15 09:43:27;;;;;;;0.20;0.20;;;;;;;8.02;96.52;99800.41;5047666;28;20455;-55
2021/03/15 09:45:59;;;;;;;0.20;0.10;;;;;;;7.97;98.08;99804.94;5047646;28;20459;-55
2021/03/15 09:48:27;;;;;;;0.20;0.10;;;;;;;8.07;98.60;99807.34;5042378;28;20457;-55
2021/03/15 09:50:58;;;;;;;0.20;0.10;;;;;;;8.11;97.13;99807.25;5042302;28;20937;-55
2021/03/15 09:53:24;;;;;;;0.30;0.10;;;;;;;8.11;97.51;99815.19;5030338;28;20450;-55
2021/03/15 09:56:04;;;;;;;0.20;0.10;;;;;;;8.25;96.84;99818.34;5041508;28;20566;-54
2021/03/15 09:58:31;;;;;;;0.30;0.20;;;;;;;8.16;95.65;99823.84;5046283;28;20479;-54
2021/03/15 10:00:57;;;;;;;0.30;0.20;;;;;;;8.26;97.35;99824.50;5048963;28;20446;-54
2021/03/15 10:03:26;;;;;;;0.30;0.20;;;;;;;8.19;96.04;99822.91;5044538;28;20498;-55
2021/03/15 10:05:54;;;;;;;0.30;0.20;;;;;;;8.26;95.75;99824.50;5041776;28;20951;-54
2021/03/15 10:08:24;;;;;;;0.30;0.20;;;;;;;8.26;95.20;99827.13;5041653;28;20456;-54
2021/03/15 10:10:51;;;;;;;0.30;0.13;;;;;;;8.33;92.57;99831.34;5036602;28;20508;-54
2021/03/15 10:13:17;;;;;;;0.30;0.20;;;;;;;8.65;94.23;99829.66;5044756;28;20517;-54
2021/03/15 10:15:46;;;;;;;0.30;0.20;;;;;;;8.84;92.62;99830.84;5048485;28;20529;-54
2021/03/15 10:18:17;;;;;;;0.30;0.20;;;;;;;8.93;91.85;99841.19;5046599;28;20459;-55
2021/03/15 10:20:44;;;;;;;0.30;0.20;;;;;;;8.59;90.48;99835.97;5041502;28;20451;-54
2021/03/15 10:23:21;;;;;;;0.30;0.20;;;;;;;8.68;91.77;99841.03;5042386;28;21059;-54
2021/03/15 10:26:05;;;;;;;0.30;0.20;;;;;;;8.64;89.69;99844.69;5029411;28;20465;-54
2021/03/15 10:28:33;;;;;;;0.30;0.20;;;;;;;8.63;89.20;99845.56;5041194;28;20451;-55
2021/03/15 10:31:18;;;;;;;0.30;0.17;;;;;;;8.67;89.92;99851.66;5034452;28;20977;-54
2021/03/15 10:33:45;;;;;;;0.30;0.10;;;;;;;8.76;90.66;99841.66;5047843;28;20461;-55
2021/03/15 10:36:19;;;;;;;0.30;0.20;;;;;;;8.78;89.32;99846.94;5044067;28;20448;-55
2021/03/15 10:38:47;;;;;;;0.30;0.20;;;;;;;8.92;88.07;99849.19;5029513;28;20454;-55
2021/03/15 10:41:14;;;;;;;0.30;0.13;;;;;;;9.06;87.83;99852.31;5040959;28;20613;-55
2021/03/15 10:43:46;;;;;;;0.30;0.20;;;;;;;9.08;88.21;99848.69;5046686;28;20454;-54
2021/03/15 10:46:18;;;;;;;0.30;0.20;;;;;;;9.16;86.38;99843.16;5047425;28;20462;-54
2021/03/15 10:48:45;;;;;;;0.30;0.20;;;;;;;9.24;87.73;99837.63;5044631;28;20447;-54
2021/03/15 10:51:12;;;;;;;0.30;0.20;;;;;;;9.14;87.83;99843.19;5040575;28;20457;-54
2021/03/15 10:53:51;;;;;;;0.30;0.10;;;;;;;9.29;85.57;99847.16;5044252;28;20459;-55
2021/03/15 10:56:24;;;;;;;0.30;0.20;;;;;;;8.94;87.64;99845.59;5047128;28;20464;-54
2021/03/15 10:58:50;;;;;;;0.30;0.20;;;;;;;8.89;85.10;99855.44;5046922;28;20857;-54
2021/03/15 11:01:24;;;;;;;0.30;0.10;;;;;;;8.96;87.72;99849.06;5040713;28;20454;-54
2021/03/15 11:03:51;;;;;;;0.30;0.17;;;;;;;8.72;82.21;99849.75;5040698;28;20492;-54
2021/03/15 11:06:27;;;;;;;0.30;0.10;;;;;;;8.88;83.68;99853.69;5047162;28;20545;-55
2021/03/15 11:08:55;;;;;;;0.30;0.10;;;;;;;9.11;83.58;99848.59;5046925;28;20450;-54
2021/03/15 11:11:24;;;;;;;0.30;0.20;;;;;;;9.11;83.96;99861.84;5043102;28;20451;-54
2021/03/15 11:13:53;;;;;;;0.30;0.20;;;;;;;9.13;84.07;99865.31;5040824;28;20512;-54
2021/03/15 11:16:19;;;;;;;0.30;0.20;;;;;;;9.15;83.98;99860.84;5044186;28;20935;-54
2021/03/15 11:19:05;;;;;;;0.30;0.17;;;;;;;9.13;84.55;99857.38;5047030;28;20498;-54
2021/03/15 11:21:32;;;;;;;0.30;0.17;;;;;;;9.15;82.30;99859.97;5046356;28;20447;-54
2021/03/15 11:23:59;;;;;;;0.30;0.20;;;;;;;8.91;80.96;99856.28;5040120;28;20439;-54
2021/03/15 11:26:27;;;;;;;0.30;0.20;;;;;;;8.83;84.48;99859.13;5040600;28;20498;-54
2021/03/15 11:28:56;;;;;;;0.30;0.10;;;;;;;8.69;83.06;99865.75;5046762;28;20464;-55
2021/03/15 11:31:29;;;;;;;0.30;0.20;;;;;;;8.82;82.39;99869.78;5028494;28;20463;-55
2021/03/15 11:34:00;;;;;;;0.30;0.10;;;;;;;8.86;83.03;99867.00;5028982;28;20451;-54
2021/03/15 11:36:28;;;;;;;0.30;0.20;;;;;;;8.80;82.97;99864.53;5040209;28;20498;-55
2021/03/15 11:39:01;;;;;;;0.30;0.10;;;;;;;9.11;81.42;99850.38;5045222;28;20497;-54
2021/03/15 11:41:33;;;;;;;0.30;0.20;;;;;;;9.10;80.80;99861.91;5020223;28;20456;-55
2021/03/15 11:44:03;;;;;;;0.30;0.20;;;;;;;9.27;82.31;99862.25;5031199;28;20871;-55
2021/03/15 11:46:29;;;;;;;0.30;0.20;;;;;;;9.13;83.53;99865.31;5026318;28;20914;-54
2021/03/15 11:48:55;;;;;;;0.30;0.20;;;;;;;9.23;82.67;99860.63;5030859;28;20816;-54
2021/03/15 11:51:22;;;;;;;0.30;0.10;;;;;;;9.27;81.47;99854.31;5044952;28;20451;-55